sensor_id;sensor_type;location;lat;lon;timestamp;P1;durP1;ratioP1;P2;durP2;ratioP2
11187;SDS011;5650;52.700;7.306;2023-07-02T00:01:43;5.70;;;3.17;;
11187;SDS011;5650;52.700;7.306;2023-07-02T00:04:14;7.40;;;3.72;;
11187;SDS011;5650;52.700;7.306;2023-07-02T00:06:44;6.95;;;3.40;;
11187;SDS011;5650;52.700;7.306;2023-07-02T00:09:15;4.50;;;2.88;;
11187;SDS011;5650;52.700;7.306;2023-07-02T00:11:44;9.65;;;3.25;;
11187;SDS011;5650;52.700;7.306;2023-07-02T00:14:12;8.50;;;3.10;;
11187;SDS011;5650;52.700;7.306;2023-07-02T00:16:42;5.57;;;3.45;;
11187;SDS011;5650;52.700;7.306;2023-07-02T00:19:10;4.97;;;3.15;;
11187;SDS011;5650;52.700;7.306;2023-07-02T00:21:43;3.72;;;3.20;;
11187;SDS011;5650;52.700;7.306;2023-07-02T00:24:10;5.43;;;3.40;;
11187;SDS011;5650;52.700;7.306;2023-07-02T00:26:46;5.78;;;3.30;;
11187;SDS011;5650;52.700;7.306;2023-07-02T00:29:14;6.10;;;3.40;;
11187;SDS011;5650;52.700;7.306;2023-07-02T00:31:41;4.65;;;3.25;;
11187;SDS011;5650;52.700;7.306;2023-07-02T00:34:11;10.10;;;3.58;;
11187;SDS011;5650;52.700;7.306;2023-07-02T00:36:41;6.82;;;3.63;;
11187;SDS011;5650;52.700;7.306;2023-07-02T00:39:17;6.28;;;3.15;;
11187;SDS011;5650;52.700;7.306;2023-07-02T00:41:46;7.80;;;3.72;;
11187;SDS011;5650;52.700;7.306;2023-07-02T00:44:15;5.10;;;3.38;;
11187;SDS011;5650;52.700;7.306;2023-07-02T00:46:42;5.05;;;3.38;;
11187;SDS011;5650;52.700;7.306;2023-07-02T00:49:12;8.13;;;3.83;;
11187;SDS011;5650;52.700;7.306;2023-07-02T00:51:39;8.25;;;3.60;;
11187;SDS011;5650;52.700;7.306;2023-07-02T00:54:11;7.70;;;3.83;;
11187;SDS011;5650;52.700;7.306;2023-07-02T00:56:44;6.40;;;3.58;;
11187;SDS011;5650;52.700;7.306;2023-07-02T00:59:16;10.38;;;4.18;;
11187;SDS011;5650;52.700;7.306;2023-07-02T01:01:43;8.23;;;3.78;;
11187;SDS011;5650;52.700;7.306;2023-07-02T01:04:16;8.18;;;3.67;;
11187;SDS011;5650;52.700;7.306;2023-07-02T01:06:44;7.97;;;3.58;;
11187;SDS011;5650;52.700;7.306;2023-07-02T01:09:14;7.57;;;3.15;;
11187;SDS011;5650;52.700;7.306;2023-07-02T01:11:45;7.82;;;3.50;;
11187;SDS011;5650;52.700;7.306;2023-07-02T01:14:19;8.90;;;4.15;;
11187;SDS011;5650;52.700;7.306;2023-07-02T01:16:51;5.78;;;3.78;;
11187;SDS011;5650;52.700;7.306;2023-07-02T01:19:30;10.23;;;3.90;;
11187;SDS011;5650;52.700;7.306;2023-07-02T01:22:11;8.27;;;3.30;;
11187;SDS011;5650;52.700;7.306;2023-07-02T01:24:39;7.68;;;3.67;;
11187;SDS011;5650;52.700;7.306;2023-07-02T01:27:07;12.40;;;3.97;;
11187;SDS011;5650;52.700;7.306;2023-07-02T01:29:35;8.30;;;3.92;;
11187;SDS011;5650;52.700;7.306;2023-07-02T01:32:03;7.88;;;4.47;;
11187;SDS011;5650;52.700;7.306;2023-07-02T01:34:33;5.47;;;3.50;;
11187;SDS011;5650;52.700;7.306;2023-07-02T01:37:00;12.88;;;4.20;;
11187;SDS011;5650;52.700;7.306;2023-07-02T01:39:28;4.90;;;3.08;;
11187;SDS011;5650;52.700;7.306;2023-07-02T01:42:08;9.90;;;3.90;;
11187;SDS011;5650;52.700;7.306;2023-07-02T01:44:35;10.05;;;4.10;;
11187;SDS011;5650;52.700;7.306;2023-07-02T01:47:03;13.18;;;3.83;;
11187;SDS011;5650;52.700;7.306;2023-07-02T01:49:33;10.80;;;3.80;;
11187;SDS011;5650;52.700;7.306;2023-07-02T01:52:01;8.52;;;3.72;;
11187;SDS011;5650;52.700;7.306;2023-07-02T01:54:29;5.65;;;3.60;;
11187;SDS011;5650;52.700;7.306;2023-07-02T01:57:01;9.75;;;4.20;;
11187;SDS011;5650;52.700;7.306;2023-07-02T01:59:29;9.43;;;3.72;;
11187;SDS011;5650;52.700;7.306;2023-07-02T02:01:56;7.53;;;3.50;;
11187;SDS011;5650;52.700;7.306;2023-07-02T02:04:23;10.10;;;4.22;;
11187;SDS011;5650;52.700;7.306;2023-07-02T02:06:57;6.03;;;3.70;;
11187;SDS011;5650;52.700;7.306;2023-07-02T02:09:24;8.23;;;4.30;;
11187;SDS011;5650;52.700;7.306;2023-07-02T02:11:57;10.45;;;3.65;;
11187;SDS011;5650;52.700;7.306;2023-07-02T02:14:27;8.75;;;4.32;;
11187;SDS011;5650;52.700;7.306;2023-07-02T02:17:00;9.75;;;4.40;;
11187;SDS011;5650;52.700;7.306;2023-07-02T02:19:27;15.50;;;4.95;;
11187;SDS011;5650;52.700;7.306;2023-07-02T02:21:54;11.13;;;4.93;;
11187;SDS011;5650;52.700;7.306;2023-07-02T02:24:28;11.13;;;4.40;;
11187;SDS011;5650;52.700;7.306;2023-07-02T02:26:59;13.38;;;4.80;;
11187;SDS011;5650;52.700;7.306;2023-07-02T02:29:26;12.25;;;4.90;;
11187;SDS011;5650;52.700;7.306;2023-07-02T02:32:00;13.68;;;4.63;;
11187;SDS011;5650;52.700;7.306;2023-07-02T02:34:30;13.65;;;5.75;;
11187;SDS011;5650;52.700;7.306;2023-07-02T02:36:58;11.43;;;5.50;;
11187;SDS011;5650;52.700;7.306;2023-07-02T02:39:25;15.60;;;6.95;;
11187;SDS011;5650;52.700;7.306;2023-07-02T02:41:54;17.30;;;5.90;;
11187;SDS011;5650;52.700;7.306;2023-07-02T02:44:21;15.00;;;5.93;;
11187;SDS011;5650;52.700;7.306;2023-07-02T02:46:48;18.38;;;6.55;;
11187;SDS011;5650;52.700;7.306;2023-07-02T02:49:16;18.63;;;6.50;;
11187;SDS011;5650;52.700;7.306;2023-07-02T02:51:45;19.17;;;6.97;;
11187;SDS011;5650;52.700;7.306;2023-07-02T02:54:15;15.20;;;7.13;;
11187;SDS011;5650;52.700;7.306;2023-07-02T02:56:42;16.65;;;6.75;;
11187;SDS011;5650;52.700;7.306;2023-07-02T02:59:11;19.45;;;6.78;;
11187;SDS011;5650;52.700;7.306;2023-07-02T03:01:40;16.85;;;6.72;;
11187;SDS011;5650;52.700;7.306;2023-07-02T03:04:07;16.58;;;6.97;;
11187;SDS011;5650;52.700;7.306;2023-07-02T03:06:34;17.02;;;7.35;;
11187;SDS011;5650;52.700;7.306;2023-07-02T03:09:05;19.05;;;6.93;;
11187;SDS011;5650;52.700;7.306;2023-07-02T03:11:32;21.08;;;7.80;;
11187;SDS011;5650;52.700;7.306;2023-07-02T03:14:00;21.20;;;7.55;;
11187;SDS011;5650;52.700;7.306;2023-07-02T03:16:28;18.45;;;7.10;;
11187;SDS011;5650;52.700;7.306;2023-07-02T03:18:55;19.55;;;7.05;;
11187;SDS011;5650;52.700;7.306;2023-07-02T03:21:24;22.98;;;7.68;;
11187;SDS011;5650;52.700;7.306;2023-07-02T03:23:51;15.25;;;7.50;;
11187;SDS011;5650;52.700;7.306;2023-07-02T03:26:18;24.10;;;9.80;;
11187;SDS011;5650;52.700;7.306;2023-07-02T03:28:46;21.92;;;7.32;;
11187;SDS011;5650;52.700;7.306;2023-07-02T03:31:20;17.50;;;7.68;;
11187;SDS011;5650;52.700;7.306;2023-07-02T03:33:48;24.20;;;8.50;;
11187;SDS011;5650;52.700;7.306;2023-07-02T03:36:15;20.35;;;8.43;;
11187;SDS011;5650;52.700;7.306;2023-07-02T03:38:43;21.67;;;7.93;;
11187;SDS011;5650;52.700;7.306;2023-07-02T03:41:10;25.80;;;8.73;;
11187;SDS011;5650;52.700;7.306;2023-07-02T03:43:37;19.60;;;8.57;;
11187;SDS011;5650;52.700;7.306;2023-07-02T03:46:04;32.63;;;8.85;;
11187;SDS011;5650;52.700;7.306;2023-07-02T03:48:31;22.23;;;8.18;;
11187;SDS011;5650;52.700;7.306;2023-07-02T03:51:01;23.95;;;7.57;;
11187;SDS011;5650;52.700;7.306;2023-07-02T03:53:28;18.63;;;8.30;;
11187;SDS011;5650;52.700;7.306;2023-07-02T03:55:58;20.67;;;8.45;;
11187;SDS011;5650;52.700;7.306;2023-07-02T03:58:26;22.50;;;8.43;;
11187;SDS011;5650;52.700;7.306;2023-07-02T04:00:58;24.88;;;8.68;;
11187;SDS011;5650;52.700;7.306;2023-07-02T04:03:25;21.45;;;8.40;;
11187;SDS011;5650;52.700;7.306;2023-07-02T04:06:04;24.70;;;9.45;;
11187;SDS011;5650;52.700;7.306;2023-07-02T04:08:31;17.40;;;7.70;;
11187;SDS011;5650;52.700;7.306;2023-07-02T04:11:01;21.33;;;8.25;;
11187;SDS011;5650;52.700;7.306;2023-07-02T04:13:28;22.27;;;8.70;;
11187;SDS011;5650;52.700;7.306;2023-07-02T04:15:58;21.08;;;8.52;;
11187;SDS011;5650;52.700;7.306;2023-07-02T04:18:26;22.60;;;9.02;;
11187;SDS011;5650;52.700;7.306;2023-07-02T04:20:54;20.02;;;8.43;;
11187;SDS011;5650;52.700;7.306;2023-07-02T04:23:23;19.40;;;8.80;;
11187;SDS011;5650;52.700;7.306;2023-07-02T04:25:50;20.25;;;8.45;;
11187;SDS011;5650;52.700;7.306;2023-07-02T04:28:20;18.23;;;7.90;;
11187;SDS011;5650;52.700;7.306;2023-07-02T04:30:47;19.90;;;7.80;;
11187;SDS011;5650;52.700;7.306;2023-07-02T04:33:22;23.80;;;8.52;;
11187;SDS011;5650;52.700;7.306;2023-07-02T04:35:49;22.48;;;8.77;;
11187;SDS011;5650;52.700;7.306;2023-07-02T04:38:21;20.98;;;8.40;;
11187;SDS011;5650;52.700;7.306;2023-07-02T04:40:49;20.92;;;9.07;;
11187;SDS011;5650;52.700;7.306;2023-07-02T04:43:17;25.52;;;9.25;;
11187;SDS011;5650;52.700;7.306;2023-07-02T04:45:44;22.70;;;8.77;;
11187;SDS011;5650;52.700;7.306;2023-07-02T04:48:13;23.17;;;8.77;;
11187;SDS011;5650;52.700;7.306;2023-07-02T04:50:43;21.27;;;8.43;;
11187;SDS011;5650;52.700;7.306;2023-07-02T04:53:24;20.40;;;8.50;;
11187;SDS011;5650;52.700;7.306;2023-07-02T04:55:51;23.30;;;9.18;;
11187;SDS011;5650;52.700;7.306;2023-07-02T04:58:21;27.55;;;9.20;;
11187;SDS011;5650;52.700;7.306;2023-07-02T05:00:48;19.38;;;8.85;;
11187;SDS011;5650;52.700;7.306;2023-07-02T05:03:15;22.60;;;8.45;;
11187;SDS011;5650;52.700;7.306;2023-07-02T05:05:46;22.10;;;8.63;;
11187;SDS011;5650;52.700;7.306;2023-07-02T05:08:13;22.92;;;9.05;;
11187;SDS011;5650;52.700;7.306;2023-07-02T05:10:42;24.60;;;9.00;;
11187;SDS011;5650;52.700;7.306;2023-07-02T05:13:12;18.05;;;7.97;;
11187;SDS011;5650;52.700;7.306;2023-07-02T05:15:39;22.30;;;8.55;;
11187;SDS011;5650;52.700;7.306;2023-07-02T05:18:07;21.52;;;8.10;;
11187;SDS011;5650;52.700;7.306;2023-07-02T05:20:34;16.80;;;7.20;;
11187;SDS011;5650;52.700;7.306;2023-07-02T05:23:01;19.38;;;8.07;;
11187;SDS011;5650;52.700;7.306;2023-07-02T05:25:28;19.48;;;8.30;;
11187;SDS011;5650;52.700;7.306;2023-07-02T05:27:59;22.52;;;8.85;;
11187;SDS011;5650;52.700;7.306;2023-07-02T05:30:29;18.08;;;7.38;;
11187;SDS011;5650;52.700;7.306;2023-07-02T05:32:56;19.67;;;7.53;;
11187;SDS011;5650;52.700;7.306;2023-07-02T05:35:23;18.98;;;7.93;;
11187;SDS011;5650;52.700;7.306;2023-07-02T05:37:50;19.27;;;7.68;;
11187;SDS011;5650;52.700;7.306;2023-07-02T05:40:17;20.65;;;7.80;;
11187;SDS011;5650;52.700;7.306;2023-07-02T05:42:45;19.30;;;7.55;;
11187;SDS011;5650;52.700;7.306;2023-07-02T05:45:13;20.17;;;8.30;;
11187;SDS011;5650;52.700;7.306;2023-07-02T05:47:41;17.95;;;7.93;;
11187;SDS011;5650;52.700;7.306;2023-07-02T05:50:08;18.23;;;7.82;;
11187;SDS011;5650;52.700;7.306;2023-07-02T05:52:35;18.05;;;8.10;;
11187;SDS011;5650;52.700;7.306;2023-07-02T05:55:12;19.98;;;8.25;;
11187;SDS011;5650;52.700;7.306;2023-07-02T05:57:45;17.27;;;8.13;;
11187;SDS011;5650;52.700;7.306;2023-07-02T06:00:22;16.55;;;7.85;;
11187;SDS011;5650;52.700;7.306;2023-07-02T06:02:59;16.75;;;7.47;;
11187;SDS011;5650;52.700;7.306;2023-07-02T06:05:39;18.90;;;8.13;;
11187;SDS011;5650;52.700;7.306;2023-07-02T06:08:06;19.13;;;7.57;;
11187;SDS011;5650;52.700;7.306;2023-07-02T06:10:33;19.08;;;8.23;;
11187;SDS011;5650;52.700;7.306;2023-07-02T06:13:03;20.95;;;8.38;;
11187;SDS011;5650;52.700;7.306;2023-07-02T06:15:32;22.48;;;8.88;;
11187;SDS011;5650;52.700;7.306;2023-07-02T06:17:59;19.20;;;8.23;;
11187;SDS011;5650;52.700;7.306;2023-07-02T06:20:26;17.38;;;8.25;;
11187;SDS011;5650;52.700;7.306;2023-07-02T06:22:54;20.52;;;8.73;;
11187;SDS011;5650;52.700;7.306;2023-07-02T06:25:21;19.67;;;8.10;;
11187;SDS011;5650;52.700;7.306;2023-07-02T06:27:51;19.02;;;7.70;;
11187;SDS011;5650;52.700;7.306;2023-07-02T06:30:20;21.95;;;8.98;;
11187;SDS011;5650;52.700;7.306;2023-07-02T06:32:54;19.52;;;8.23;;
11187;SDS011;5650;52.700;7.306;2023-07-02T06:35:21;17.00;;;7.45;;
11187;SDS011;5650;52.700;7.306;2023-07-02T06:37:49;17.67;;;7.55;;
11187;SDS011;5650;52.700;7.306;2023-07-02T06:40:16;17.80;;;7.60;;
11187;SDS011;5650;52.700;7.306;2023-07-02T06:42:43;19.08;;;8.52;;
11187;SDS011;5650;52.700;7.306;2023-07-02T06:45:10;21.90;;;8.43;;
11187;SDS011;5650;52.700;7.306;2023-07-02T06:47:38;21.48;;;8.63;;
11187;SDS011;5650;52.700;7.306;2023-07-02T06:50:07;21.10;;;8.07;;
11187;SDS011;5650;52.700;7.306;2023-07-02T06:52:34;21.30;;;7.82;;
11187;SDS011;5650;52.700;7.306;2023-07-02T06:55:02;17.15;;;8.68;;
11187;SDS011;5650;52.700;7.306;2023-07-02T06:57:30;22.55;;;8.25;;
11187;SDS011;5650;52.700;7.306;2023-07-02T06:59:57;20.38;;;7.85;;
11187;SDS011;5650;52.700;7.306;2023-07-02T07:02:25;19.73;;;9.05;;
11187;SDS011;5650;52.700;7.306;2023-07-02T07:04:53;18.88;;;8.05;;
11187;SDS011;5650;52.700;7.306;2023-07-02T07:07:21;22.88;;;8.60;;
11187;SDS011;5650;52.700;7.306;2023-07-02T07:09:49;23.92;;;7.70;;
11187;SDS011;5650;52.700;7.306;2023-07-02T07:12:16;17.30;;;8.35;;
11187;SDS011;5650;52.700;7.306;2023-07-02T07:14:43;23.15;;;8.45;;
11187;SDS011;5650;52.700;7.306;2023-07-02T07:17:11;16.85;;;7.60;;
11187;SDS011;5650;52.700;7.306;2023-07-02T07:19:38;23.90;;;7.55;;
11187;SDS011;5650;52.700;7.306;2023-07-02T07:22:05;18.70;;;7.63;;
11187;SDS011;5650;52.700;7.306;2023-07-02T07:24:34;20.27;;;8.40;;
11187;SDS011;5650;52.700;7.306;2023-07-02T07:27:01;22.85;;;7.75;;
11187;SDS011;5650;52.700;7.306;2023-07-02T07:29:28;16.60;;;7.22;;
11187;SDS011;5650;52.700;7.306;2023-07-02T07:31:55;23.45;;;8.45;;
11187;SDS011;5650;52.700;7.306;2023-07-02T07:34:23;17.60;;;7.95;;
11187;SDS011;5650;52.700;7.306;2023-07-02T07:36:50;16.80;;;8.13;;
11187;SDS011;5650;52.700;7.306;2023-07-02T07:39:17;15.85;;;7.63;;
11187;SDS011;5650;52.700;7.306;2023-07-02T07:41:47;17.10;;;8.10;;
11187;SDS011;5650;52.700;7.306;2023-07-02T07:44:14;21.73;;;8.10;;
11187;SDS011;5650;52.700;7.306;2023-07-02T07:46:42;17.33;;;7.25;;
11187;SDS011;5650;52.700;7.306;2023-07-02T07:49:09;18.80;;;7.85;;
11187;SDS011;5650;52.700;7.306;2023-07-02T07:51:36;18.25;;;7.72;;
11187;SDS011;5650;52.700;7.306;2023-07-02T07:54:03;18.08;;;8.13;;
11187;SDS011;5650;52.700;7.306;2023-07-02T07:56:31;16.38;;;7.60;;
11187;SDS011;5650;52.700;7.306;2023-07-02T07:59:02;17.05;;;7.80;;
11187;SDS011;5650;52.700;7.306;2023-07-02T08:01:29;16.27;;;7.22;;
11187;SDS011;5650;52.700;7.306;2023-07-02T08:03:57;16.15;;;7.97;;
11187;SDS011;5650;52.700;7.306;2023-07-02T08:06:24;14.85;;;7.57;;
11187;SDS011;5650;52.700;7.306;2023-07-02T08:08:51;18.10;;;7.38;;
11187;SDS011;5650;52.700;7.306;2023-07-02T08:11:21;18.50;;;7.90;;
11187;SDS011;5650;52.700;7.306;2023-07-02T08:13:55;20.75;;;7.50;;
11187;SDS011;5650;52.700;7.306;2023-07-02T08:16:26;17.42;;;7.43;;
11187;SDS011;5650;52.700;7.306;2023-07-02T08:18:54;16.13;;;7.65;;
11187;SDS011;5650;52.700;7.306;2023-07-02T08:21:21;21.67;;;8.18;;
11187;SDS011;5650;52.700;7.306;2023-07-02T08:23:54;20.08;;;7.90;;
11187;SDS011;5650;52.700;7.306;2023-07-02T08:26:25;15.82;;;7.28;;
11187;SDS011;5650;52.700;7.306;2023-07-02T08:28:52;19.48;;;7.55;;
11187;SDS011;5650;52.700;7.306;2023-07-02T08:31:22;19.70;;;7.57;;
11187;SDS011;5650;52.700;7.306;2023-07-02T08:33:55;15.90;;;7.03;;
11187;SDS011;5650;52.700;7.306;2023-07-02T08:36:22;21.52;;;7.60;;
11187;SDS011;5650;52.700;7.306;2023-07-02T08:38:55;16.35;;;6.97;;
11187;SDS011;5650;52.700;7.306;2023-07-02T08:41:23;17.85;;;7.22;;
11187;SDS011;5650;52.700;7.306;2023-07-02T08:43:50;18.85;;;7.10;;
11187;SDS011;5650;52.700;7.306;2023-07-02T08:46:21;13.40;;;6.65;;
11187;SDS011;5650;52.700;7.306;2023-07-02T08:49:01;21.70;;;7.85;;
11187;SDS011;5650;52.700;7.306;2023-07-02T08:51:31;17.45;;;7.10;;
11187;SDS011;5650;52.700;7.306;2023-07-02T08:53:58;19.10;;;6.88;;
11187;SDS011;5650;52.700;7.306;2023-07-02T08:56:25;14.70;;;6.82;;
11187;SDS011;5650;52.700;7.306;2023-07-02T08:58:52;14.57;;;6.50;;
11187;SDS011;5650;52.700;7.306;2023-07-02T09:01:20;21.42;;;6.63;;
11187;SDS011;5650;52.700;7.306;2023-07-02T09:03:59;15.50;;;6.38;;
11187;SDS011;5650;52.700;7.306;2023-07-02T09:06:26;12.93;;;6.43;;
11187;SDS011;5650;52.700;7.306;2023-07-02T09:09:09;12.85;;;6.25;;
11187;SDS011;5650;52.700;7.306;2023-07-02T09:11:45;15.60;;;6.13;;
11187;SDS011;5650;52.700;7.306;2023-07-02T09:14:23;11.82;;;5.05;;
11187;SDS011;5650;52.700;7.306;2023-07-02T09:17:00;12.63;;;4.60;;
11187;SDS011;5650;52.700;7.306;2023-07-02T09:19:30;14.65;;;5.10;;
11187;SDS011;5650;52.700;7.306;2023-07-02T09:22:01;16.77;;;4.97;;
11187;SDS011;5650;52.700;7.306;2023-07-02T09:24:32;11.27;;;4.82;;
11187;SDS011;5650;52.700;7.306;2023-07-02T09:27:05;11.88;;;5.47;;
11187;SDS011;5650;52.700;7.306;2023-07-02T09:29:33;11.98;;;5.45;;
11187;SDS011;5650;52.700;7.306;2023-07-02T09:32:01;13.63;;;4.55;;
11187;SDS011;5650;52.700;7.306;2023-07-02T09:34:34;7.22;;;3.67;;
11187;SDS011;5650;52.700;7.306;2023-07-02T09:37:05;12.00;;;4.10;;
11187;SDS011;5650;52.700;7.306;2023-07-02T09:39:33;10.32;;;3.38;;
11187;SDS011;5650;52.700;7.306;2023-07-02T09:42:07;8.43;;;3.45;;
11187;SDS011;5650;52.700;7.306;2023-07-02T09:44:35;11.07;;;4.07;;
11187;SDS011;5650;52.700;7.306;2023-07-02T09:47:08;12.40;;;3.85;;
11187;SDS011;5650;52.700;7.306;2023-07-02T09:49:38;9.70;;;4.03;;
11187;SDS011;5650;52.700;7.306;2023-07-02T09:52:13;6.90;;;3.45;;
11187;SDS011;5650;52.700;7.306;2023-07-02T09:54:41;8.05;;;3.10;;
11187;SDS011;5650;52.700;7.306;2023-07-02T09:57:09;7.75;;;3.17;;
11187;SDS011;5650;52.700;7.306;2023-07-02T09:59:38;8.40;;;3.20;;
11187;SDS011;5650;52.700;7.306;2023-07-02T10:02:09;7.03;;;3.17;;
11187;SDS011;5650;52.700;7.306;2023-07-02T10:04:43;8.35;;;3.58;;
11187;SDS011;5650;52.700;7.306;2023-07-02T10:07:11;12.73;;;4.28;;
11187;SDS011;5650;52.700;7.306;2023-07-02T10:09:43;13.75;;;4.82;;
11187;SDS011;5650;52.700;7.306;2023-07-02T10:12:15;10.45;;;4.80;;
11187;SDS011;5650;52.700;7.306;2023-07-02T10:14:47;7.85;;;4.28;;
11187;SDS011;5650;52.700;7.306;2023-07-02T10:17:25;13.73;;;4.53;;
11187;SDS011;5650;52.700;7.306;2023-07-02T10:19:57;9.02;;;4.55;;
11187;SDS011;5650;52.700;7.306;2023-07-02T10:22:26;9.02;;;4.57;;
11187;SDS011;5650;52.700;7.306;2023-07-02T10:24:59;12.68;;;4.65;;
11187;SDS011;5650;52.700;7.306;2023-07-02T10:27:33;15.48;;;5.00;;
11187;SDS011;5650;52.700;7.306;2023-07-02T10:30:05;9.35;;;4.60;;
11187;SDS011;5650;52.700;7.306;2023-07-02T10:32:34;9.80;;;4.20;;
11187;SDS011;5650;52.700;7.306;2023-07-02T10:35:16;13.10;;;4.88;;
11187;SDS011;5650;52.700;7.306;2023-07-02T10:37:47;13.60;;;5.13;;
11187;SDS011;5650;52.700;7.306;2023-07-02T10:40:18;11.95;;;4.93;;
11187;SDS011;5650;52.700;7.306;2023-07-02T10:42:52;9.60;;;4.35;;
11187;SDS011;5650;52.700;7.306;2023-07-02T10:45:32;10.85;;;4.65;;
11187;SDS011;5650;52.700;7.306;2023-07-02T10:48:01;15.18;;;4.72;;
11187;SDS011;5650;52.700;7.306;2023-07-02T10:50:33;9.85;;;4.03;;
11187;SDS011;5650;52.700;7.306;2023-07-02T10:53:01;9.38;;;3.85;;
11187;SDS011;5650;52.700;7.306;2023-07-02T10:55:29;12.75;;;4.32;;
11187;SDS011;5650;52.700;7.306;2023-07-02T10:58:04;14.43;;;4.60;;
11187;SDS011;5650;52.700;7.306;2023-07-02T11:00:32;11.10;;;4.20;;
11187;SDS011;5650;52.700;7.306;2023-07-02T11:03:02;11.13;;;4.03;;
11187;SDS011;5650;52.700;7.306;2023-07-02T11:05:30;10.05;;;4.63;;
11187;SDS011;5650;52.700;7.306;2023-07-02T11:08:07;10.82;;;4.70;;
11187;SDS011;5650;52.700;7.306;2023-07-02T11:10:35;7.80;;;3.97;;
11187;SDS011;5650;52.700;7.306;2023-07-02T11:13:09;11.95;;;4.13;;
11187;SDS011;5650;52.700;7.306;2023-07-02T11:15:37;8.38;;;4.03;;
11187;SDS011;5650;52.700;7.306;2023-07-02T11:18:09;19.92;;;4.15;;
11187;SDS011;5650;52.700;7.306;2023-07-02T11:20:38;12.95;;;4.53;;
11187;SDS011;5650;52.700;7.306;2023-07-02T11:23:18;12.00;;;4.07;;
11187;SDS011;5650;52.700;7.306;2023-07-02T11:25:56;9.60;;;4.20;;
11187;SDS011;5650;52.700;7.306;2023-07-02T11:28:27;11.00;;;3.80;;
11187;SDS011;5650;52.700;7.306;2023-07-02T11:30:56;11.35;;;4.35;;
11187;SDS011;5650;52.700;7.306;2023-07-02T11:33:34;11.38;;;4.15;;
11187;SDS011;5650;52.700;7.306;2023-07-02T11:36:04;13.32;;;4.20;;
11187;SDS011;5650;52.700;7.306;2023-07-02T11:38:32;10.68;;;4.47;;
11187;SDS011;5650;52.700;7.306;2023-07-02T11:41:02;10.02;;;3.95;;
11187;SDS011;5650;52.700;7.306;2023-07-02T11:43:29;9.88;;;4.28;;
11187;SDS011;5650;52.700;7.306;2023-07-02T11:45:59;8.45;;;3.45;;
11187;SDS011;5650;52.700;7.306;2023-07-02T11:48:29;9.13;;;3.75;;
11187;SDS011;5650;52.700;7.306;2023-07-02T11:50:56;11.65;;;3.95;;
11187;SDS011;5650;52.700;7.306;2023-07-02T11:53:25;8.50;;;3.95;;
11187;SDS011;5650;52.700;7.306;2023-07-02T11:55:55;13.57;;;3.90;;
11187;SDS011;5650;52.700;7.306;2023-07-02T11:58:28;10.73;;;3.65;;
11187;SDS011;5650;52.700;7.306;2023-07-02T12:00:58;5.93;;;3.10;;
11187;SDS011;5650;52.700;7.306;2023-07-02T12:03:26;9.73;;;3.40;;
11187;SDS011;5650;52.700;7.306;2023-07-02T12:05:53;9.10;;;3.40;;
11187;SDS011;5650;52.700;7.306;2023-07-02T12:08:31;6.95;;;3.67;;
11187;SDS011;5650;52.700;7.306;2023-07-02T12:10:59;7.57;;;3.45;;
11187;SDS011;5650;52.700;7.306;2023-07-02T12:13:26;8.73;;;3.72;;
11187;SDS011;5650;52.700;7.306;2023-07-02T12:15:53;8.25;;;3.22;;
11187;SDS011;5650;52.700;7.306;2023-07-02T12:18:20;5.78;;;2.85;;
11187;SDS011;5650;52.700;7.306;2023-07-02T12:20:54;9.05;;;3.65;;
11187;SDS011;5650;52.700;7.306;2023-07-02T12:23:25;9.63;;;3.58;;
11187;SDS011;5650;52.700;7.306;2023-07-02T12:25:52;11.15;;;3.58;;
11187;SDS011;5650;52.700;7.306;2023-07-02T12:28:23;9.35;;;3.80;;
11187;SDS011;5650;52.700;7.306;2023-07-02T12:30:50;6.78;;;3.33;;
11187;SDS011;5650;52.700;7.306;2023-07-02T12:33:17;10.90;;;3.47;;
11187;SDS011;5650;52.700;7.306;2023-07-02T12:35:44;7.72;;;3.67;;
11187;SDS011;5650;52.700;7.306;2023-07-02T12:38:11;11.98;;;4.15;;
11187;SDS011;5650;52.700;7.306;2023-07-02T12:40:43;12.48;;;4.15;;
11187;SDS011;5650;52.700;7.306;2023-07-02T12:43:14;11.45;;;4.30;;
11187;SDS011;5650;52.700;7.306;2023-07-02T12:45:44;11.57;;;4.00;;
11187;SDS011;5650;52.700;7.306;2023-07-02T12:48:12;12.30;;;3.78;;
11187;SDS011;5650;52.700;7.306;2023-07-02T12:51:00;9.30;;;3.83;;
11187;SDS011;5650;52.700;7.306;2023-07-02T12:53:27;10.27;;;3.40;;
11187;SDS011;5650;52.700;7.306;2023-07-02T12:55:59;14.57;;;3.95;;
11187;SDS011;5650;52.700;7.306;2023-07-02T12:58:27;9.20;;;3.30;;
11187;SDS011;5650;52.700;7.306;2023-07-02T13:01:10;7.35;;;3.30;;
11187;SDS011;5650;52.700;7.306;2023-07-02T13:03:37;12.48;;;3.78;;
11187;SDS011;5650;52.700;7.306;2023-07-02T13:06:04;5.43;;;3.05;;
11187;SDS011;5650;52.700;7.306;2023-07-02T13:08:40;11.32;;;3.47;;
11187;SDS011;5650;52.700;7.306;2023-07-02T13:11:12;8.50;;;3.28;;
11187;SDS011;5650;52.700;7.306;2023-07-02T13:13:39;9.88;;;3.45;;
11187;SDS011;5650;52.700;7.306;2023-07-02T13:16:07;6.85;;;3.03;;
11187;SDS011;5650;52.700;7.306;2023-07-02T13:18:34;9.43;;;3.25;;
11187;SDS011;5650;52.700;7.306;2023-07-02T13:21:01;7.85;;;3.17;;
11187;SDS011;5650;52.700;7.306;2023-07-02T13:23:29;7.28;;;3.03;;
11187;SDS011;5650;52.700;7.306;2023-07-02T13:25:58;5.38;;;3.08;;
11187;SDS011;5650;52.700;7.306;2023-07-02T13:28:30;8.63;;;3.47;;
11187;SDS011;5650;52.700;7.306;2023-07-02T13:30:57;7.18;;;2.75;;
11187;SDS011;5650;52.700;7.306;2023-07-02T13:33:26;7.25;;;3.22;;
11187;SDS011;5650;52.700;7.306;2023-07-02T13:35:54;5.88;;;3.03;;
11187;SDS011;5650;52.700;7.306;2023-07-02T13:38:24;6.90;;;3.28;;
11187;SDS011;5650;52.700;7.306;2023-07-02T13:40:51;11.88;;;3.58;;
11187;SDS011;5650;52.700;7.306;2023-07-02T13:43:22;6.03;;;3.33;;
11187;SDS011;5650;52.700;7.306;2023-07-02T13:45:53;6.70;;;3.10;;
11187;SDS011;5650;52.700;7.306;2023-07-02T13:48:23;6.68;;;3.20;;
11187;SDS011;5650;52.700;7.306;2023-07-02T13:50:51;10.20;;;3.50;;
11187;SDS011;5650;52.700;7.306;2023-07-02T13:53:19;9.80;;;3.33;;
11187;SDS011;5650;52.700;7.306;2023-07-02T13:55:55;7.88;;;3.63;;
11187;SDS011;5650;52.700;7.306;2023-07-02T13:58:22;7.22;;;3.42;;
11187;SDS011;5650;52.700;7.306;2023-07-02T14:01:12;10.73;;;3.72;;
11187;SDS011;5650;52.700;7.306;2023-07-02T14:03:39;10.13;;;3.63;;
11187;SDS011;5650;52.700;7.306;2023-07-02T14:06:06;7.30;;;3.55;;
11187;SDS011;5650;52.700;7.306;2023-07-02T14:08:34;8.55;;;3.30;;
11187;SDS011;5650;52.700;7.306;2023-07-02T14:11:07;10.23;;;4.10;;
11187;SDS011;5650;52.700;7.306;2023-07-02T14:13:34;10.68;;;3.78;;
11187;SDS011;5650;52.700;7.306;2023-07-02T14:16:01;9.43;;;3.63;;
11187;SDS011;5650;52.700;7.306;2023-07-02T14:18:30;13.27;;;4.40;;
11187;SDS011;5650;52.700;7.306;2023-07-02T14:20:57;6.30;;;3.72;;
11187;SDS011;5650;52.700;7.306;2023-07-02T14:23:24;12.27;;;4.03;;
11187;SDS011;5650;52.700;7.306;2023-07-02T14:25:57;9.05;;;3.70;;
11187;SDS011;5650;52.700;7.306;2023-07-02T14:28:25;8.23;;;4.47;;
11187;SDS011;5650;52.700;7.306;2023-07-02T14:30:57;11.30;;;4.50;;
11187;SDS011;5650;52.700;7.306;2023-07-02T14:33:26;7.07;;;4.28;;
11187;SDS011;5650;52.700;7.306;2023-07-02T14:35:59;13.05;;;4.55;;
11187;SDS011;5650;52.700;7.306;2023-07-02T14:38:26;7.82;;;3.70;;
11187;SDS011;5650;52.700;7.306;2023-07-02T14:40:57;14.32;;;4.38;;
11187;SDS011;5650;52.700;7.306;2023-07-02T14:43:25;10.43;;;4.15;;
11187;SDS011;5650;52.700;7.306;2023-07-02T14:46:00;8.38;;;4.07;;
11187;SDS011;5650;52.700;7.306;2023-07-02T14:48:29;11.55;;;4.32;;
11187;SDS011;5650;52.700;7.306;2023-07-02T14:51:00;6.95;;;4.03;;
11187;SDS011;5650;52.700;7.306;2023-07-02T14:53:31;10.25;;;4.20;;
11187;SDS011;5650;52.700;7.306;2023-07-02T14:56:01;7.32;;;3.85;;
11187;SDS011;5650;52.700;7.306;2023-07-02T14:58:29;8.13;;;3.90;;
11187;SDS011;5650;52.700;7.306;2023-07-02T15:00:57;7.93;;;3.72;;
11187;SDS011;5650;52.700;7.306;2023-07-02T15:03:28;10.43;;;4.70;;
11187;SDS011;5650;52.700;7.306;2023-07-02T15:06:09;9.90;;;3.88;;
11187;SDS011;5650;52.700;7.306;2023-07-02T15:08:37;12.38;;;4.25;;